MSC Levina — 3FJR8 — position and weather

sailwx.info

Track history (hours):
 
Tides and Currents Weather Stations Pressure Air Temp Water Temp Dewpoint Dewpoint Depression Visibility Wind Speed Wind Dir Waves Ship Positions

MSC Levina

Last reported at 2014-Jul-27 20:32 UTC. Time now 2014-Sep-03 00:01 UTC.
Position N 31°22' E 032°20'.
Warning: this ship's position is 37 days out of date.

Length 227.6 m; beam 32.2 m; draft 12.1 m.

Type: Ship (hazmat cat A). MMSI: 355609000.

Date/timePositionNaut miles runAvg speedWind from/ knotsBaromVisibWave heightAir tempDewpointWater temp
2014-Jul-27 20:32N 31°22' E 032°20'0 0.1
2014-Jul-27 19:33N 31°22' E 032°20'  
2014-Jul-25 13:17N 35°59' E 015°26'1216.3
2014-Jul-25 12:33N 36°02' E 015°12'1716.7
2014-Jul-25 11:33N 36°07' E 014°53'1717.1
2014-Jul-25 10:33N 36°11' E 014°32'1717.1
2014-Jul-25 09:33N 36°17' E 014°12'1717.1
2014-Jul-25 08:33N 36°23' E 013°52'1717.2
2014-Jul-25 07:33N 36°26' E 013°31'1817.5
2014-Jul-25 06:33N 36°33' E 013°11'1818.1
2014-Jul-25 05:33N 36°40' E 012°50'1818.0
2014-Jul-25 04:33N 36°48' E 012°30'1717.4
2014-Jul-25 03:33N 36°55' E 012°10'1716.9
2014-Jul-25 02:33N 37°02' E 011°51'3416.8
2014-Jul-25 00:31N 37°19' E 011°14'1616.2
2014-Jul-24 23:33N 37°25' E 010°55'1716.9
2014-Jul-24 22:33N 37°29' E 010°35'1717.1
2014-Jul-24 21:33N 37°33' E 010°14'1717.2
2014-Jul-24 20:33N 37°34' E 009°52'1817.5
2014-Jul-24 19:33N 37°37' E 009°30'1717.3
2014-Jul-24 18:33N 37°38' E 009°08'1716.7
2014-Jul-24 17:33N 37°37' E 008°47'1716.4
2014-Jul-24 16:33N 37°33' E 008°27'1616.0
2014-Jul-24 15:32N 37°30' E 008°07'1615.9
2014-Jul-24 14:33N 37°29' E 007°47'3716.4
2014-Jul-24 12:18N 37°23' E 007°01'1516.5
2014-Jul-24 11:22N 37°22' E 006°42'1416.5
2014-Jul-24 10:32N 37°20' E 006°25'1816.5
2014-Jul-24 09:28N 37°18' E 006°03'1516.8
2014-Jul-24 08:33N 37°16' E 005°44'2317.0
2014-Jul-24 07:13N 37°12' E 005°16'1317.0
2014-Jul-24 06:27N 37°10' E 004°60'1516.6
2014-Jul-24 05:33N 37°09' E 004°41'2017.2
2014-Jul-24 04:22N 37°08' E 004°16'1417.6
2014-Jul-24 03:33N 37°06' E 003°58'1817.6
2014-Jul-24 02:33N 37°03' E 003°36'1817.5
2014-Jul-24 01:33N 37°00' E 003°14'1717.4
2014-Jul-24 00:33N 36°59' E 002°52'1818.2
2014-Jul-23 23:33N 36°56' E 002°30'1817.6
2014-Jul-23 22:33N 36°53' E 002°08'1717.2
2014-Jul-23 21:33N 36°51' E 001°47'1817.2
2014-Jul-23 20:32N 36°48' E 001°25'1818.0
2014-Jul-23 19:33N 36°46' E 001°03'1616.2
2014-Jul-23 18:33N 36°45' E 000°44'1717.3
2014-Jul-23 17:33N 36°41' E 000°22'1717.1
2014-Jul-23 16:33N 36°37' E 000°02'1616.4
2014-Jul-23 15:33N 36°36' W 000°19'1717.1
2014-Jul-23 14:33N 36°32' W 000°40'1717.2
2014-Jul-23 13:33N 36°28' W 001°00'1716.6
2014-Jul-23 12:33N 36°28' W 001°21'1716.5
2014-Jul-23 11:31N 36°26' W 001°42'1818.2
2014-Jul-23 10:31N 36°22' W 002°04'1515.2
2014-Jul-23 09:32N 36°19' W 002°22'14617.6
2014-Jul-23 01:15N 35°59' W 005°21'11517.0
2014-Jul-22 18:30N 36°07' W 007°43'1817.5
2014-Jul-22 17:27N 36°10' W 008°05'1617.6
2014-Jul-22 16:33N 36°13' W 008°24'1717.4
2014-Jul-22 15:33N 36°17' W 008°45'1717.2
2014-Jul-22 14:33N 36°19' W 009°06'1717.1
2014-Jul-22 13:33N 36°24' W 009°27'1717.1
2014-Jul-22 12:32N 36°28' W 009°48'1717.0
2014-Jul-22 11:33N 36°30' W 010°09'1717.0
2014-Jul-22 10:33N 36°33' W 010°29'1716.7
2014-Jul-22 09:33N 36°35' W 010°50'1716.7
2014-Jul-22 08:33N 36°38' W 011°11'1716.9
2014-Jul-22 07:33N 36°41' W 011°31'1717.1
2014-Jul-22 06:33N 36°43' W 011°53'1717.2
2014-Jul-22 05:33N 36°45' W 012°14'1817.5
2014-Jul-22 04:33N 36°48' W 012°36'1817.6
2014-Jul-22 03:33N 36°51' W 012°57'1817.5
2014-Jul-22 02:32N 36°53' W 013°19'50017.1
2014-Jul-20 21:22N 37°33' W 023°45'1417.1
2014-Jul-20 20:33N 37°33' W 024°03'1717.0
2014-Jul-20 19:33N 37°35' W 024°24'1716.7
2014-Jul-20 18:33N 37°35' W 024°45'1717.1
2014-Jul-20 17:33N 37°34' W 025°07'1717.1
2014-Jul-20 16:33N 37°34' W 025°28'1817.7
2014-Jul-20 15:33N 37°34' W 025°51'1717.4
2014-Jul-20 14:33N 37°35' W 026°13'1717.3
2014-Jul-20 13:33N 37°35' W 026°35'1717.3
2014-Jul-20 12:33N 37°34' W 026°56'1817.7
2014-Jul-20 11:33N 37°35' W 027°19'1817.6
2014-Jul-20 10:34N 37°35' W 027°41'1717.5
2014-Jul-20 09:33N 37°34' W 028°03'1817.6
2014-Jul-20 08:33N 37°34' W 028°25'1717.3
2014-Jul-20 07:34N 37°33' W 028°47'1717.1
2014-Jul-20 06:33N 37°34' W 029°09'1717.1
2014-Jul-20 05:33N 37°34' W 029°30'1111.1
2014-Jul-20 04:32N 37°33' W 029°44'8 8.4
2014-Jul-20 03:34N 37°31' W 029°55'1716.6
2014-Jul-20 02:34N 37°30' W 030°15'1817.6
2014-Jul-20 01:34N 37°29' W 030°38'1717.2
2014-Jul-20 00:34N 37°28' W 030°59'1917.2
2014-Jul-19 23:27N 37°28' W 031°23'1617.6
2014-Jul-19 22:33N 37°28' W 031°43'1917.6
2014-Jul-19 21:28N 37°26' W 032°07'2017.3
2014-Jul-19 20:19N 37°25' W 032°32'  
Track history (hours):
 
Tides and Currents Weather Stations Pressure Air Temp Water Temp Dewpoint Dewpoint Depression Visibility Wind Speed Wind Dir Waves Ship Positions

MSC Levina

Last reported at 2014-Jul-27 20:32 UTC. Time now 2014-Sep-03 00:02 UTC.
Position N 31°22' E 032°20'.
Warning: this ship's position is 37 days out of date.

Length 227.6 m; beam 32.2 m; draft 12.1 m.

Type: Ship (hazmat cat A). MMSI: 355609000.

Date/timePositionNaut miles runAvg speedWind from/ knotsBaromVisibWave heightAir tempDewpointWater temp
2014-Jul-27 20:32N 31°22' E 032°20'0 0.1
2014-Jul-27 19:33N 31°22' E 032°20'  
2014-Jul-25 13:17N 35°59' E 015°26'1216.3
2014-Jul-25 12:33N 36°02' E 015°12'1716.7
2014-Jul-25 11:33N 36°07' E 014°53'1717.1
2014-Jul-25 10:33N 36°11' E 014°32'1717.1
2014-Jul-25 09:33N 36°17' E 014°12'1717.1
2014-Jul-25 08:33N 36°23' E 013°52'1717.2
2014-Jul-25 07:33N 36°26' E 013°31'1817.5
2014-Jul-25 06:33N 36°33' E 013°11'1818.1
2014-Jul-25 05:33N 36°40' E 012°50'1818.0
2014-Jul-25 04:33N 36°48' E 012°30'1717.4
2014-Jul-25 03:33N 36°55' E 012°10'1716.9
2014-Jul-25 02:33N 37°02' E 011°51'3416.8
2014-Jul-25 00:31N 37°19' E 011°14'1616.2
2014-Jul-24 23:33N 37°25' E 010°55'1716.9
2014-Jul-24 22:33N 37°29' E 010°35'1717.1
2014-Jul-24 21:33N 37°33' E 010°14'1717.2
2014-Jul-24 20:33N 37°34' E 009°52'1817.5
2014-Jul-24 19:33N 37°37' E 009°30'1717.3
2014-Jul-24 18:33N 37°38' E 009°08'1716.7
2014-Jul-24 17:33N 37°37' E 008°47'1716.4
2014-Jul-24 16:33N 37°33' E 008°27'1616.0
2014-Jul-24 15:32N 37°30' E 008°07'1615.9
2014-Jul-24 14:33N 37°29' E 007°47'3716.4
2014-Jul-24 12:18N 37°23' E 007°01'1516.5
2014-Jul-24 11:22N 37°22' E 006°42'1416.5
2014-Jul-24 10:32N 37°20' E 006°25'1816.5
2014-Jul-24 09:28N 37°18' E 006°03'1516.8
2014-Jul-24 08:33N 37°16' E 005°44'2317.0
2014-Jul-24 07:13N 37°12' E 005°16'1317.0
2014-Jul-24 06:27N 37°10' E 004°60'1516.6
2014-Jul-24 05:33N 37°09' E 004°41'2017.2
2014-Jul-24 04:22N 37°08' E 004°16'1417.6
2014-Jul-24 03:33N 37°06' E 003°58'1817.6
2014-Jul-24 02:33N 37°03' E 003°36'1817.5
2014-Jul-24 01:33N 37°00' E 003°14'1717.4
2014-Jul-24 00:33N 36°59' E 002°52'1818.2
2014-Jul-23 23:33N 36°56' E 002°30'1817.6
2014-Jul-23 22:33N 36°53' E 002°08'1717.2
2014-Jul-23 21:33N 36°51' E 001°47'1817.2
2014-Jul-23 20:32N 36°48' E 001°25'1818.0
2014-Jul-23 19:33N 36°46' E 001°03'1616.2
2014-Jul-23 18:33N 36°45' E 000°44'1717.3
2014-Jul-23 17:33N 36°41' E 000°22'1717.1
2014-Jul-23 16:33N 36°37' E 000°02'1616.4
2014-Jul-23 15:33N 36°36' W 000°19'1717.1
2014-Jul-23 14:33N 36°32' W 000°40'1717.2
2014-Jul-23 13:33N 36°28' W 001°00'1716.6
2014-Jul-23 12:33N 36°28' W 001°21'1716.5
2014-Jul-23 11:31N 36°26' W 001°42'1818.2
2014-Jul-23 10:31N 36°22' W 002°04'1515.2
2014-Jul-23 09:32N 36°19' W 002°22'14617.6
2014-Jul-23 01:15N 35°59' W 005°21'11517.0
2014-Jul-22 18:30N 36°07' W 007°43'1817.5
2014-Jul-22 17:27N 36°10' W 008°05'1617.6
2014-Jul-22 16:33N 36°13' W 008°24'1717.4
2014-Jul-22 15:33N 36°17' W 008°45'1717.2
2014-Jul-22 14:33N 36°19' W 009°06'1717.1
2014-Jul-22 13:33N 36°24' W 009°27'1717.1
2014-Jul-22 12:32N 36°28' W 009°48'1717.0
2014-Jul-22 11:33N 36°30' W 010°09'1717.0
2014-Jul-22 10:33N 36°33' W 010°29'1716.7
2014-Jul-22 09:33N 36°35' W 010°50'1716.7
2014-Jul-22 08:33N 36°38' W 011°11'1716.9
2014-Jul-22 07:33N 36°41' W 011°31'1717.1
2014-Jul-22 06:33N 36°43' W 011°53'1717.2
2014-Jul-22 05:33N 36°45' W 012°14'1817.5
2014-Jul-22 04:33N 36°48' W 012°36'1817.6
2014-Jul-22 03:33N 36°51' W 012°57'1817.5
2014-Jul-22 02:32N 36°53' W 013°19'50017.1
2014-Jul-20 21:22N 37°33' W 023°45'1417.1
2014-Jul-20 20:33N 37°33' W 024°03'1717.0
2014-Jul-20 19:33N 37°35' W 024°24'1716.7
2014-Jul-20 18:33N 37°35' W 024°45'1717.1
2014-Jul-20 17:33N 37°34' W 025°07'1717.1
2014-Jul-20 16:33N 37°34' W 025°28'1817.7
2014-Jul-20 15:33N 37°34' W 025°51'1717.4
2014-Jul-20 14:33N 37°35' W 026°13'1717.3
2014-Jul-20 13:33N 37°35' W 026°35'1717.3
2014-Jul-20 12:33N 37°34' W 026°56'1817.7
2014-Jul-20 11:33N 37°35' W 027°19'1817.6
2014-Jul-20 10:34N 37°35' W 027°41'1717.5
2014-Jul-20 09:33N 37°34' W 028°03'1817.6
2014-Jul-20 08:33N 37°34' W 028°25'1717.3
2014-Jul-20 07:34N 37°33' W 028°47'1717.1
2014-Jul-20 06:33N 37°34' W 029°09'1717.1
2014-Jul-20 05:33N 37°34' W 029°30'1111.1
2014-Jul-20 04:32N 37°33' W 029°44'8 8.4
2014-Jul-20 03:34N 37°31' W 029°55'1716.6
2014-Jul-20 02:34N 37°30' W 030°15'1817.6
2014-Jul-20 01:34N 37°29' W 030°38'1717.2
2014-Jul-20 00:34N 37°28' W 030°59'1917.2
2014-Jul-19 23:27N 37°28' W 031°23'1617.6
2014-Jul-19 22:33N 37°28' W 031°43'1917.6
2014-Jul-19 21:28N 37°26' W 032°07'2017.3
2014-Jul-19 20:19N 37°25' W 032°32'  

Dump ship's entire track history